Time;durP1;ratioP1;P1;durP2;ratioP2;P2;SDS_P1;SDS_P2;PMS_P1;PMS_P2;Temp;Humidity;BMP_temperature;BMP_pressure;BME280_temperature;BME280_humidity;BME280_pressure;Samples;Min_cycle;Max_cycle;Signal;HPM_P1;HPM_P2
2023/07/05 00:00:34;;;;;;;8.18;5.47;;;;;;;24.51;91.09;100551.41;4948121;29;20043;-93
2023/07/05 00:03:00;;;;;;;8.50;5.38;;;;;;;24.46;90.78;100540.22;4932433;29;20409;-88
2023/07/05 00:05:26;;;;;;;9.35;6.15;;;;;;;24.55;90.41;100561.78;4939733;29;20196;-93
2023/07/05 00:07:52;;;;;;;14.77;6.03;;;;;;;24.52;90.70;100569.63;4915413;29;20059;-82
2023/07/05 00:10:18;;;;;;;7.93;5.40;;;;;;;24.51;91.12;100574.25;4929662;29;20094;-87
2023/07/05 00:12:43;;;;;;;8.60;5.90;;;;;;;24.50;91.13;100566.22;4930782;29;20036;-82
2023/07/05 00:15:09;;;;;;;15.00;5.07;;;;;;;24.46;91.41;100568.59;4929017;29;20048;-92
2023/07/05 00:17:36;;;;;;;13.98;5.60;;;;;;;24.52;91.48;100578.72;4930532;29;20040;-91
2023/07/05 00:20:04;;;;;;;15.55;6.50;;;;;;;24.42;91.17;100556.31;4915249;29;20047;-92
2023/07/05 00:22:30;;;;;;;10.98;5.97;;;;;;;24.35;90.87;100548.09;4934790;29;20164;-89
2023/07/05 00:24:56;;;;;;;8.77;5.00;;;;;;;24.48;90.94;100579.34;4961531;28;20118;-87
2023/07/05 00:27:25;;;;;;;11.18;5.53;;;;;;;24.42;91.24;100563.72;4987164;28;20046;-88
2023/07/05 00:29:53;;;;;;;11.20;5.63;;;;;;;24.44;90.89;100556.09;4993421;28;20041;-87
2023/07/05 00:32:19;;;;;;;8.50;4.35;;;;;;;24.48;90.37;100565.59;4977257;28;20030;-88
2023/07/05 00:34:44;;;;;;;9.77;5.63;;;;;;;24.51;90.15;100573.41;4989693;28;20035;-81
2023/07/05 00:37:10;;;;;;;9.00;5.63;;;;;;;24.36;90.26;100554.44;4994028;28;20052;-95
2023/07/05 00:39:36;;;;;;;7.55;5.15;;;;;;;24.20;90.78;100530.16;4982649;28;20109;-91
2023/07/05 00:42:03;;;;;;;6.18;4.68;;;;;;;24.13;90.66;100523.81;4984245;28;20030;-94
2023/07/05 01:31:49;;;;;;;4.53;3.75;;;;;;;23.57;94.80;100557.25;4996289;28;20058;-94
2023/07/05 01:34:27;;;;;;;4.00;3.70;;;;;;;23.48;95.53;100565.91;4999413;28;20050;-95
2023/07/05 01:36:53;;;;;;;4.95;4.53;;;;;;;23.40;95.90;100555.97;5001211;28;20046;-93
2023/07/05 01:39:19;;;;;;;5.72;5.18;;;;;;;23.43;96.26;100568.41;4997108;28;20038;-93
2023/07/05 01:41:44;;;;;;;6.03;5.38;;;;;;;23.18;97.29;100532.47;4988026;28;20046;-94
2023/07/05 01:51:21;;;;;;;11.60;6.97;;;;;;;23.11;100.00;100537.13;4990599;28;20038;-94
2023/07/05 01:53:56;;;;;;;8.35;6.47;;;;;;;23.27;100.00;100555.94;4963307;28;20090;-94
2023/07/05 01:56:30;;;;;;;11.23;7.60;;;;;;;23.03;100.00;100527.16;4967415;28;20060;-95
2023/07/05 01:58:58;;;;;;;22.65;7.57;;;;;;;23.05;100.00;100532.47;4959598;28;20049;-95
2023/07/05 02:01:27;;;;;;;11.10;7.72;;;;;;;23.30;100.00;100569.25;4974907;28;20039;-93
2023/07/05 02:03:57;;;;;;;12.93;8.48;;;;;;;23.08;100.00;100537.53;4957852;28;20035;-93
2023/07/05 02:06:23;;;;;;;10.70;7.60;;;;;;;22.88;100.00;100521.00;4973082;28;20039;-93
2023/07/05 02:08:50;;;;;;;7.22;6.50;;;;;;;23.09;100.00;100547.44;4973631;28;20042;-92
2023/07/05 02:11:16;;;;;;;14.20;7.18;;;;;;;22.89;100.00;100517.22;4966422;28;20043;-93
2023/07/05 02:13:42;;;;;;;7.00;6.20;;;;;;;23.01;100.00;100547.63;4955800;28;20417;-89
2023/07/05 02:16:07;;;;;;;5.82;5.28;;;;;;;23.02;100.00;100541.09;4973142;28;20035;-88
2023/07/05 02:18:33;;;;;;;7.50;5.10;;;;;;;23.09;100.00;100548.28;4957795;28;20079;-88
2023/07/05 02:20:58;;;;;;;6.57;5.13;;;;;;;23.13;100.00;100556.94;4959955;28;20042;-88
2023/07/05 02:23:24;;;;;;;6.75;4.30;;;;;;;23.18;100.00;100548.94;4976954;28;20035;-89
2023/07/05 02:25:58;;;;;;;9.32;4.70;;;;;;;23.24;100.00;100554.44;4977335;28;20114;-89
2023/07/05 02:28:23;;;;;;;7.18;4.78;;;;;;;23.34;99.68;100565.00;4958963;28;20039;-90
2023/07/05 02:30:48;;;;;;;8.32;4.10;;;;;;;23.28;99.41;100549.38;5014049;28;20046;-93
2023/07/05 02:33:14;;;;;;;7.53;4.38;;;;;;;23.18;99.40;100547.03;5018046;28;20126;-93
2023/07/05 02:35:40;;;;;;;4.60;4.20;;;;;;;23.19;99.38;100556.97;4964942;28;20076;-89
2023/07/05 02:38:06;;;;;;;5.03;3.90;;;;;;;23.19;98.39;100536.91;4958066;29;20043;-89
2023/07/05 02:40:33;;;;;;;10.00;5.25;;;;;;;23.28;97.98;100554.88;4957527;29;20050;-89
2023/07/05 02:42:59;;;;;;;6.70;4.72;;;;;;;23.24;97.60;100556.31;4957802;29;20134;-89
2023/07/05 02:45:28;;;;;;;8.07;4.45;;;;;;;23.21;97.44;100559.50;4939545;29;20138;-89
2023/07/05 02:47:53;;;;;;;6.53;5.18;;;;;;;23.05;97.75;100521.50;4955642;29;20035;-90
2023/07/05 02:50:20;;;;;;;15.80;4.75;;;;;;;23.12;98.29;100544.28;4954509;28;20571;-90
2023/07/05 02:52:45;;;;;;;8.75;4.80;;;;;;;23.10;98.03;100530.78;4954841;28;20041;-89
2023/07/05 02:55:11;;;;;;;7.70;4.47;;;;;;;23.08;98.85;100543.03;4955710;28;20043;-91
2023/07/05 02:57:36;;;;;;;6.38;4.80;;;;;;;23.14;98.78;100551.28;4958726;28;20035;-88
2023/07/05 03:00:06;;;;;;;12.77;5.30;;;;;;;23.13;98.33;100546.81;4959856;28;20098;-89
2023/07/05 03:02:31;;;;;;;7.03;5.25;;;;;;;23.22;97.55;100556.56;4957339;28;20106;-88
2023/07/05 03:04:57;;;;;;;6.43;5.47;;;;;;;23.22;97.60;100553.81;4952963;29;20322;-87
2023/07/05 03:07:22;;;;;;;13.18;5.63;;;;;;;23.11;97.47;100528.88;4969659;28;20070;-93
2023/07/05 03:09:48;;;;;;;9.40;7.03;;;;;;;23.36;96.85;100573.91;4960897;28;20102;-92
2023/07/05 03:12:15;;;;;;;6.95;5.20;;;;;;;23.19;97.10;100550.63;4974839;28;20423;-92
2023/07/05 03:14:41;;;;;;;10.52;6.70;;;;;;;23.36;96.75;100573.91;4974450;28;20051;-92
2023/07/05 03:17:06;;;;;;;13.43;6.38;;;;;;;23.37;97.05;100561.84;4958772;28;20035;-91
2023/07/05 03:19:32;;;;;;;10.13;6.00;;;;;;;23.36;97.42;100568.41;4975727;28;20479;-92
2023/07/05 03:21:58;;;;;;;10.45;6.40;;;;;;;23.34;97.47;100548.53;4977884;28;20442;-94
2023/07/05 03:24:23;;;;;;;18.85;9.32;;;;;;;23.41;97.54;100560.41;5002572;28;20053;-91
2023/07/05 03:26:53;;;;;;;34.05;17.08;;;;;;;23.35;97.71;100549.38;4985094;28;20034;-93
2023/07/05 03:29:19;;;;;;;24.77;11.73;;;;;;;23.24;98.19;100523.38;4973814;28;20109;-95
2023/07/05 03:31:45;;;;;;;8.80;6.72;;;;;;;23.46;97.97;100552.38;4984699;28;20042;-93
2023/07/05 03:34:10;;;;;;;19.80;7.07;;;;;;;23.62;97.44;100568.44;4986840;28;20039;-93
2023/07/05 03:36:36;;;;;;;16.65;7.38;;;;;;;23.63;97.23;100564.66;4976846;28;20039;-95
2023/07/05 03:39:02;;;;;;;10.68;7.95;;;;;;;23.61;96.79;100543.94;4974144;28;20058;-94
2023/07/05 03:41:27;;;;;;;21.27;6.70;;;;;;;23.75;96.32;100557.47;4993384;28;20042;-91
2023/07/05 03:44:02;;;;;;;7.10;6.28;;;;;;;23.69;96.07;100541.84;4976561;28;20035;-93
2023/07/05 03:46:28;;;;;;;7.95;6.97;;;;;;;23.51;95.56;100516.06;5006933;28;20117;-93
2023/07/05 03:48:54;;;;;;;23.33;8.55;;;;;;;23.85;95.61;100563.34;5003053;28;20048;-93
2023/07/05 03:51:22;;;;;;;36.45;9.45;;;;;;;23.60;95.52;100521.16;4996677;28;20425;-94
2023/07/05 03:54:12;;;;;;;17.90;7.30;;;;;;;23.80;95.25;100548.56;5022669;28;20091;-96
2023/07/05 03:56:37;;;;;;;13.48;7.45;;;;;;;23.97;94.90;100571.81;4972274;28;20192;-96
2023/07/05 03:59:03;;;;;;;19.55;7.47;;;;;;;23.92;95.14;100546.03;4962192;28;20049;-96
2023/07/05 04:01:30;;;;;;;31.08;9.25;;;;;;;23.90;95.28;100532.50;4932003;29;20513;-86
2023/07/05 04:03:59;;;;;;;26.23;9.15;;;;;;;24.07;95.13;100550.22;4930348;29;20051;-86
2023/07/05 04:06:28;;;;;;;49.83;10.82;;;;;;;24.20;94.44;100552.13;4930083;29;20040;-85
2023/07/05 04:08:54;;;;;;;31.55;9.93;;;;;;;24.29;94.29;100548.94;4913866;29;20039;-87
2023/07/05 04:11:20;;;;;;;21.52;7.68;;;;;;;24.30;93.66;100544.31;4930439;29;20115;-87
2023/07/05 04:13:47;;;;;;;56.50;12.50;;;;;;;24.45;93.14;100553.13;4910932;29;20040;-85
2023/07/05 04:16:17;;;;;;;45.58;8.07;;;;;;;24.45;92.91;100530.28;4913029;29;20036;-90
2023/07/05 04:18:44;;;;;;;28.48;7.85;;;;;;;24.53;92.68;100528.13;4896403;29;20091;-91
2023/07/05 04:21:11;;;;;;;27.42;8.90;;;;;;;24.68;92.61;100536.94;4913134;29;20124;-87
2023/07/05 04:23:39;;;;;;;17.35;5.90;;;;;;;24.80;91.33;100532.44;4914325;29;20047;-85
2023/07/05 04:26:12;;;;;;;31.80;6.38;;;;;;;24.86;90.04;100544.53;4913385;29;20091;-90
2023/07/05 04:28:40;;;;;;;30.33;7.75;;;;;;;24.76;89.67;100522.97;4913866;29;20052;-87
2023/07/05 04:31:09;;;;;;;28.65;7.30;;;;;;;24.87;89.15;100541.53;4934568;29;20048;-89
2023/07/05 04:33:35;;;;;;;21.52;6.28;;;;;;;24.85;89.37;100549.19;4975773;28;20101;-89
2023/07/05 04:36:01;;;;;;;8.60;5.00;;;;;;;24.87;89.14;100526.94;4994140;28;20038;-87
2023/07/05 04:38:27;;;;;;;35.72;6.38;;;;;;;25.05;88.21;100542.72;4991575;28;20608;-78
2023/07/05 04:40:53;;;;;;;20.15;6.53;;;;;;;25.00;88.34;100512.25;4988761;28;20035;-86
2023/07/05 04:43:19;;;;;;;22.65;6.82;;;;;;;25.18;87.42;100542.63;4990930;28;20045;-84
2023/07/05 04:45:52;;;;;;;13.10;5.32;;;;;;;25.24;86.98;100536.22;4998253;28;20489;-93
2023/07/05 04:48:18;;;;;;;16.05;5.40;;;;;;;25.18;85.94;100531.63;4953386;29;20043;-85
2023/07/05 04:50:44;;;;;;;44.25;7.63;;;;;;;25.34;85.39;100547.63;4940555;29;20079;-83
2023/07/05 04:53:10;;;;;;;14.10;5.35;;;;;;;25.49;84.36;100550.91;4930109;29;20211;-83
2023/07/05 04:55:35;;;;;;;20.60;7.88;;;;;;;25.56;83.60;100554.47;4929290;29;20075;-81
2023/07/05 04:58:03;;;;;;;14.90;5.05;;;;;;;25.62;82.89;100545.31;4929278;29;20103;-86
2023/07/05 05:00:29;;;;;;;23.00;5.28;;;;;;;25.71;82.50;100554.97;4934232;29;20117;-86
2023/07/05 05:02:55;;;;;;;24.58;5.43;;;;;;;25.80;81.85;100559.13;4923075;29;20472;-86
2023/07/05 05:05:20;;;;;;;14.50;5.38;;;;;;;25.89;81.37;100563.28;4953431;29;20069;-82
2023/07/05 05:07:47;;;;;;;32.85;5.15;;;;;;;25.88;81.06;100550.56;4955596;29;20047;-93
2023/07/05 05:10:12;;;;;;;37.63;6.18;;;;;;;25.99;80.83;100552.56;4921469;29;20669;-87
2023/07/05 05:12:39;;;;;;;31.38;6.03;;;;;;;25.85;79.35;100522.63;4951014;29;20038;-90
2023/07/05 05:15:05;;;;;;;8.15;4.90;;;;;;;26.02;78.52;100536.66;4955000;29;20043;-91
2023/07/05 05:17:30;;;;;;;109.03;18.13;;;;;;;26.26;78.07;100538.56;4954059;29;20754;-89
2023/07/05 05:19:56;;;;;;;37.65;7.45;;;;;;;26.29;77.01;100532.59;4989285;28;20407;-89
2023/07/05 05:22:23;;;;;;;19.95;4.32;;;;;;;26.36;75.38;100530.59;4979026;28;20089;-90
2023/07/05 05:24:48;;;;;;;19.25;5.15;;;;;;;26.36;75.08;100542.47;4979364;28;20030;-88
2023/07/05 05:27:13;;;;;;;34.83;4.70;;;;;;;26.39;74.40;100541.19;4994742;28;20053;-93
2023/07/05 05:29:39;;;;;;;38.55;5.97;;;;;;;26.35;74.43;100531.66;4991144;28;20050;-83
2023/07/05 05:32:05;;;;;;;23.88;4.95;;;;;;;26.38;74.51;100540.34;4989701;28;20086;-88
2023/07/05 05:34:30;;;;;;;21.70;4.20;;;;;;;26.41;74.63;100541.78;4973641;28;20038;-82
2023/07/05 05:36:56;;;;;;;10.77;4.68;;;;;;;26.50;73.61;100552.28;4989695;28;20078;-82
2023/07/05 05:39:23;;;;;;;11.13;4.35;;;;;;;26.36;73.67;100534.19;4989039;28;20038;-81
2023/07/05 05:41:49;;;;;;;32.33;6.68;;;;;;;26.37;73.33;100544.16;4987994;28;20495;-79
2023/07/05 05:44:14;;;;;;;23.08;4.90;;;;;;;26.48;73.22;100535.09;4988854;28;20043;-80
2023/07/05 05:46:40;;;;;;;31.73;4.78;;;;;;;26.50;72.42;100549.53;4988806;28;20053;-81
2023/07/05 05:49:05;;;;;;;42.42;6.57;;;;;;;26.41;72.98;100547.28;4988091;28;20479;-81
2023/07/05 05:51:31;;;;;;;12.57;4.35;;;;;;;26.48;73.00;100548.06;4988101;28;20038;-82
2023/07/05 05:53:56;;;;;;;32.70;5.63;;;;;;;26.58;71.96;100545.59;4988754;28;20053;-81
2023/07/05 05:56:21;;;;;;;28.85;6.47;;;;;;;26.62;71.79;100544.06;4987987;28;20038;-81
2023/07/05 05:58:47;;;;;;;6.78;3.72;;;;;;;26.61;72.32;100528.56;4988709;28;20040;-79
2023/07/05 06:01:12;;;;;;;33.63;5.88;;;;;;;26.87;72.13;100550.34;4988426;28;20121;-81
2023/07/05 06:03:39;;;;;;;11.80;4.28;;;;;;;26.95;71.75;100547.25;4987512;28;20042;-76
2023/07/05 06:06:05;;;;;;;18.48;5.50;;;;;;;26.99;70.96;100542.13;4995971;28;20515;-76
2023/07/05 06:08:32;;;;;;;27.63;4.63;;;;;;;27.14;70.01;100549.97;4977671;28;20053;-77
2023/07/05 06:10:59;;;;;;;28.00;6.43;;;;;;;27.07;69.74;100543.69;4988294;28;20031;-78
2023/07/05 06:13:27;;;;;;;15.75;4.00;;;;;;;27.09;69.91;100553.44;4990950;28;20053;-87
2023/07/05 06:16:00;;;;;;;8.65;3.70;;;;;;;27.09;69.78;100547.94;5004376;28;20086;-89
2023/07/05 06:18:27;;;;;;;7.97;3.80;;;;;;;27.06;69.44;100547.56;5012299;28;20105;-89
2023/07/05 06:20:55;;;;;;;8.25;3.83;;;;;;;27.11;69.41;100558.72;5000004;28;20046;-91
2023/07/05 06:23:21;;;;;;;38.45;8.05;;;;;;;27.16;70.07;100550.56;5003126;28;20079;-90
2023/07/05 06:25:50;;;;;;;8.85;4.10;;;;;;;27.13;69.51;100531.72;5002931;28;20090;-89
2023/07/05 06:28:17;;;;;;;20.77;5.22;;;;;;;27.12;69.60;100541.94;4994386;28;20090;-86
2023/07/05 06:30:44;;;;;;;11.32;4.35;;;;;;;27.21;69.85;100547.97;4993868;28;20529;-88
2023/07/05 06:33:09;;;;;;;13.35;4.07;;;;;;;27.31;69.78;100556.50;4942684;28;20121;-86
2023/07/05 06:35:36;;;;;;;12.60;3.63;;;;;;;27.34;68.90;100542.22;4974630;28;20038;-89
2023/07/05 06:38:02;;;;;;;10.60;4.18;;;;;;;27.26;68.79;100520.47;4994880;28;20034;-87
2023/07/05 06:40:31;;;;;;;10.90;4.25;;;;;;;27.33;68.33;100505.50;4994924;28;20056;-87
2023/07/05 06:43:23;;;;;;;17.73;4.38;;;;;;;27.51;68.11;100546.03;4994834;28;20038;-87
2023/07/05 06:45:50;;;;;;;13.82;4.30;;;;;;;27.31;67.98;100513.16;4993882;28;20125;-87
2023/07/05 06:48:16;;;;;;;11.45;3.20;;;;;;;27.26;68.08;100517.72;4993979;28;20113;-87
2023/07/05 06:50:42;;;;;;;14.82;3.70;;;;;;;27.32;68.03;100522.28;4977691;28;20434;-87
2023/07/05 06:53:08;;;;;;;11.25;3.78;;;;;;;27.21;66.97;100528.63;4994818;28;20053;-87
2023/07/05 06:55:37;;;;;;;10.75;3.53;;;;;;;27.20;65.75;100524.19;4980438;28;20026;-87
2023/07/05 06:58:03;;;;;;;11.00;3.42;;;;;;;27.32;65.00;100514.00;4995884;28;20399;-86
2023/07/05 07:00:28;;;;;;;17.90;4.00;;;;;;;27.36;64.35;100516.06;4994695;28;20042;-88
2023/07/05 07:02:54;;;;;;;12.45;3.75;;;;;;;27.20;64.90;100525.03;4995058;28;20045;-88
2023/07/05 07:05:20;;;;;;;7.40;3.45;;;;;;;27.13;65.16;100510.47;4997395;28;20069;-87
2023/07/05 07:07:45;;;;;;;7.15;4.15;;;;;;;27.30;64.64;100521.69;4998720;28;20065;-88
2023/07/05 07:10:11;;;;;;;14.68;4.13;;;;;;;27.33;63.64;100516.53;5011026;28;20098;-85
2023/07/05 07:12:36;;;;;;;7.57;3.50;;;;;;;27.58;61.94;100557.81;4999907;28;20046;-86
2023/07/05 07:15:02;;;;;;;30.20;5.55;;;;;;;27.41;61.93;100499.59;5013404;28;20038;-88
2023/07/05 07:25:00;;;;;;;16.00;3.95;;;;;;;27.79;61.13;100556.41;4997888;28;20044;-87
2023/07/05 07:31:45;;;;;;;14.32;3.38;;;;;;;27.78;60.20;100552.78;5000886;28;20054;-86
2023/07/05 07:34:11;;;;;;;7.63;3.50;;;;;;;27.49;61.03;100526.91;4977262;28;20057;-85
2023/07/05 07:36:40;;;;;;;7.93;3.15;;;;;;;27.61;62.56;100512.28;4977247;28;20051;-86
2023/07/05 07:39:05;;;;;;;14.18;3.97;;;;;;;27.80;62.15;100550.63;4976601;28;20468;-89
2023/07/05 07:41:36;;;;;;;26.33;3.88;;;;;;;27.71;62.48;100507.84;4979942;28;20090;-88
2023/07/05 07:47:23;;;;;;;10.38;3.03;;;;;;;28.27;57.03;100550.66;4978879;28;20050;-89
2023/07/05 07:49:50;;;;;;;17.98;3.97;;;;;;;28.10;58.96;100518.19;4977056;28;20035;-88
2023/07/05 07:52:17;;;;;;;13.93;4.47;;;;;;;28.20;59.93;100519.50;4975968;28;20101;-87
2023/07/05 07:54:46;;;;;;;12.10;3.53;;;;;;;28.50;57.48;100551.44;4960325;28;20054;-88
2023/07/05 07:57:11;;;;;;;28.15;4.50;;;;;;;28.30;54.94;100505.91;4962622;28;20097;-88
2023/07/05 07:59:41;;;;;;;8.82;3.03;;;;;;;28.30;57.33;100503.13;4936887;29;20048;-89
2023/07/05 08:09:13;;;;;;;4.82;3.45;;;;;;;28.48;60.94;100512.13;4940515;29;20040;-88
2023/07/05 08:11:44;;;;;;;9.48;3.75;;;;;;;28.68;61.42;100511.75;4921363;29;20055;-88
2023/07/05 08:14:49;;;;;;;13.50;3.75;;;;;;;28.57;61.79;100496.81;4901436;29;20119;-88
2023/07/05 08:17:20;;;;;;;13.98;4.43;;;;;;;28.66;62.25;100497.28;4917272;29;20252;-90
2023/07/05 08:19:45;;;;;;;8.48;3.65;;;;;;;28.72;61.40;100492.69;4917803;29;20048;-89
2023/07/05 08:22:27;;;;;;;9.85;3.70;;;;;;;28.77;63.57;100509.41;4918553;29;20095;-90
2023/07/05 08:24:52;;;;;;;22.00;5.43;;;;;;;28.68;63.66;100513.66;4918953;29;20159;-86
2023/07/05 08:27:18;;;;;;;15.27;3.50;;;;;;;28.71;64.49;100530.63;4933264;29;20135;-89
2023/07/05 08:29:43;;;;;;;8.98;4.05;;;;;;;28.58;64.40;100509.56;4932460;29;20055;-88
2023/07/05 08:32:09;;;;;;;16.38;4.03;;;;;;;28.60;65.23;100523.16;4919429;29;20056;-82
2023/07/05 08:34:35;;;;;;;6.68;3.22;;;;;;;28.66;66.02;100538.81;4905685;29;20048;-86
2023/07/05 08:37:03;;;;;;;26.90;4.88;;;;;;;28.79;66.28;100537.69;4885976;29;20040;-88
2023/07/05 08:39:30;;;;;;;8.57;4.00;;;;;;;28.84;65.44;100535.84;4885033;29;20048;-89
2023/07/05 08:42:29;;;;;;;14.13;4.82;;;;;;;29.01;65.15;100542.31;4894424;29;20524;-87
2023/07/05 08:45:08;;;;;;;104.63;11.55;;;;;;;29.00;64.43;100540.63;4886928;29;20089;-88
2023/07/05 08:47:54;;;;;;;20.10;4.70;;;;;;;29.02;64.55;100521.00;4888287;29;20049;-88
2023/07/05 08:50:43;;;;;;;19.20;4.65;;;;;;;29.06;63.98;100523.00;4913896;29;20052;-92
2023/07/05 08:53:14;;;;;;;11.23;4.00;;;;;;;29.19;64.52;100538.47;4898789;29;20051;-86
2023/07/05 08:55:58;;;;;;;12.15;4.82;;;;;;;29.25;64.45;100533.91;4912217;29;20066;-86
2023/07/05 08:58:39;;;;;;;14.45;4.22;;;;;;;29.28;64.13;100530.63;4905588;29;20040;-89
2023/07/05 09:01:11;;;;;;;6.82;3.25;;;;;;;29.32;63.85;100531.81;4923430;29;20111;-86
2023/07/05 09:03:36;;;;;;;12.10;4.13;;;;;;;29.46;63.58;100525.69;4928935;29;20130;-85
2023/07/05 09:06:14;;;;;;;33.65;6.60;;;;;;;29.46;62.55;100516.53;4911749;29;20123;-83
2023/07/05 09:09:09;;;;;;;18.45;4.40;;;;;;;29.42;61.73;100515.34;4911052;29;20040;-84
2023/07/05 09:11:41;;;;;;;27.42;4.68;;;;;;;29.47;62.37;100523.78;4929713;28;20054;-86
2023/07/05 09:14:16;;;;;;;;;;;;;;;29.63;61.62;100528.50;4970758;28;20035;-85
2023/07/05 09:16:51;;;;;;;8.98;4.45;;;;;;;29.59;62.15;100513.44;4971807;28;19936;-83
2023/07/05 09:19:38;;;;;;;11.07;5.07;;;;;;;29.67;60.44;100532.41;4970742;28;20403;-84
2023/07/05 09:22:08;;;;;;;10.10;4.03;;;;;;;29.69;62.07;100516.41;4970946;28;20455;-83
2023/07/05 09:24:41;;;;;;;11.35;3.90;;;;;;;29.82;62.29;100527.16;4970550;28;20038;-83
2023/07/05 09:27:15;;;;;;;17.45;4.32;;;;;;;29.71;61.17;100541.94;4970060;28;20542;-83
2023/07/05 09:29:51;;;;;;;15.00;3.88;;;;;;;29.74;61.88;100524.78;4970663;28;20034;-83
2023/07/05 09:32:19;;;;;;;13.98;3.40;;;;;;;29.82;61.13;100532.69;4969949;28;20074;-82
2023/07/05 09:34:50;;;;;;;17.05;4.35;;;;;;;29.85;61.51;100539.66;4969670;28;20150;-84
2023/07/05 09:37:19;;;;;;;18.77;3.92;;;;;;;29.81;61.67;100536.56;4969361;28;20047;-83
2023/07/05 09:39:47;;;;;;;28.17;4.00;;;;;;;29.76;60.38;100542.00;4970573;28;20035;-85
2023/07/05 09:42:22;;;;;;;14.65;4.55;;;;;;;29.71;60.90;100522.50;4969620;28;20470;-84
2023/07/05 09:44:48;;;;;;;17.95;4.40;;;;;;;29.79;60.94;100544.25;4969271;28;20104;-83
2023/07/05 09:47:13;;;;;;;16.50;3.80;;;;;;;29.77;60.98;100534.53;4969196;28;20483;-83
2023/07/05 09:49:39;;;;;;;10.48;4.18;;;;;;;29.69;60.62;100516.41;4969289;28;20523;-84
2023/07/05 09:52:11;;;;;;;18.90;5.05;;;;;;;29.81;60.49;100524.63;4969450;28;20031;-84
2023/07/05 09:54:37;;;;;;;15.35;3.42;;;;;;;29.64;60.64;100516.28;4969650;28;20039;-84
2023/07/05 09:57:09;;;;;;;7.50;3.05;;;;;;;29.75;60.15;100534.78;4982992;28;20031;-82
2023/07/05 09:59:36;;;;;;;15.40;4.50;;;;;;;29.80;60.81;100537.63;4989711;28;20487;-83
2023/07/05 10:02:12;;;;;;;11.27;3.63;;;;;;;29.74;61.05;100544.19;4990002;28;21200;-83
2023/07/05 10:04:58;;;;;;;18.73;4.10;;;;;;;29.78;60.93;100530.66;4962830;28;20031;-83
2023/07/05 10:07:29;;;;;;;22.88;4.65;;;;;;;29.94;60.37;100524.28;4971082;28;20150;-82
2023/07/05 10:10:01;;;;;;;16.17;3.97;;;;;;;30.03;59.60;100525.56;4977539;28;20041;-82
2023/07/05 10:12:32;;;;;;;7.75;3.08;;;;;;;30.01;60.08;100523.03;4988805;28;20227;-83
2023/07/05 10:14:58;;;;;;;12.43;3.22;;;;;;;30.19;59.71;100544.09;4988904;28;20153;-82
2023/07/05 10:17:38;;;;;;;26.70;12.00;;;;;;;30.24;58.82;100535.84;4989439;28;20041;-83
2023/07/05 10:20:06;;;;;;;6.38;2.92;;;;;;;30.21;59.35;100530.81;4989497;28;20486;-89
2023/07/05 10:22:34;;;;;;;9.35;2.90;;;;;;;30.28;59.04;100536.16;4985767;28;20034;-88
2023/07/05 10:25:13;;;;;;;10.20;3.20;;;;;;;30.39;58.30;100538.03;4977886;28;20057;-84
2023/07/05 10:27:43;;;;;;;25.65;3.95;;;;;;;30.53;58.53;100539.31;4974142;28;20066;-85
2023/07/05 10:30:15;;;;;;;5.40;2.95;;;;;;;30.60;57.81;100537.19;4969098;28;20102;-85
2023/07/05 10:34:16;;;;;;;12.48;2.97;;;;;;;30.47;57.13;100520.91;5086934;27;20967;-91
2023/07/05 10:36:46;;;;;;;27.30;3.63;;;;;;;30.72;56.51;100526.78;5089276;28;20107;-78
2023/07/05 10:39:12;;;;;;;7.88;2.83;;;;;;;30.76;56.88;100525.19;5085300;28;20389;-81
2023/07/05 10:41:40;;;;;;;7.63;3.70;;;;;;;30.69;57.75;100505.09;5068050;28;20082;-90
2023/07/05 10:44:24;;;;;;;5.60;3.10;;;;;;;30.62;57.85;100498.88;5082862;28;20029;-89
2023/07/05 10:46:50;;;;;;;10.32;3.60;;;;;;;30.63;58.18;100523.63;5089234;28;20023;-88
2023/07/05 10:49:18;;;;;;;5.22;2.55;;;;;;;30.66;57.22;100522.28;5090681;28;20024;-91
2023/07/05 10:52:00;;;;;;;16.45;3.00;;;;;;;30.62;57.31;100533.06;5085141;28;20046;-91
2023/07/05 10:54:41;;;;;;;10.38;3.05;;;;;;;30.62;57.10;100521.94;5091701;28;20032;-88
2023/07/05 10:57:21;;;;;;;29.40;5.03;;;;;;;30.42;57.25;100509.75;5099154;28;20047;-89
2023/07/05 10:59:55;;;;;;;24.85;3.42;;;;;;;30.33;58.45;100516.81;5129559;27;20035;-92
2023/07/05 11:02:33;;;;;;;15.05;2.90;;;;;;;30.31;58.96;100503.19;5131845;27;20051;-87
2023/07/05 11:04:59;;;;;;;17.05;3.63;;;;;;;30.53;57.65;100530.97;5122755;28;20684;-82
2023/07/05 11:07:26;;;;;;;8.13;3.10;;;;;;;30.56;57.35;100527.69;5121424;28;20105;-86
2023/07/05 11:09:52;;;;;;;18.35;3.65;;;;;;;30.67;57.42;100512.84;5125176;28;20031;-82
2023/07/05 11:12:30;;;;;;;15.30;3.72;;;;;;;30.66;56.82;100508.38;5110397;28;20044;-88
2023/07/05 11:14:58;;;;;;;10.55;2.33;;;;;;;30.81;55.33;100516.91;5108579;28;20100;-87
2023/07/05 11:17:36;;;;;;;12.63;3.90;;;;;;;30.88;54.64;100514.75;5106056;28;20101;-83
2023/07/05 11:20:34;;;;;;;8.55;3.10;;;;;;;30.92;54.11;100515.06;5089909;28;20023;-84
2023/07/05 11:22:59;;;;;;;8.43;2.97;;;;;;;30.99;53.77;100513.78;5105640;28;20070;-85
2023/07/05 11:25:52;;;;;;;5.57;2.88;;;;;;;31.00;51.97;100528.53;5105443;28;20086;-85
2023/07/05 11:28:48;;;;;;;8.88;3.35;;;;;;;30.86;53.59;100482.75;5107353;28;20478;-83
2023/07/05 11:31:28;;;;;;;14.23;3.25;;;;;;;30.94;50.43;100497.09;5066878;28;20060;-85
2023/07/05 11:34:21;;;;;;;8.93;3.08;;;;;;;31.31;52.27;100519.41;5066071;28;20105;-85
2023/07/05 11:36:51;;;;;;;5.97;3.22;;;;;;;31.20;53.13;100490.66;5064844;28;20029;-82
2023/07/05 11:39:51;;;;;;;10.05;2.65;;;;;;;31.46;51.60;100518.72;5064284;28;20033;-81
2023/07/05 11:42:24;;;;;;;6.30;3.00;;;;;;;31.54;50.99;100504.34;5063678;28;20124;-84
2023/07/05 11:44:55;;;;;;;6.72;2.30;;;;;;;31.61;47.12;100519.72;5056690;28;20029;-87
2023/07/05 11:47:21;;;;;;;5.07;1.98;;;;;;;31.64;48.34;100513.63;5057938;28;20412;-87
2023/07/05 11:49:51;;;;;;;11.13;2.85;;;;;;;31.59;47.96;100487.72;5063356;28;20032;-83
2023/07/05 11:52:32;;;;;;;6.28;2.33;;;;;;;31.74;47.82;100508.13;5042983;28;20092;-88
2023/07/05 11:55:19;;;;;;;26.70;5.13;;;;;;;31.97;46.81;100495.75;5052944;28;20136;-89
2023/07/05 11:57:52;;;;;;;21.85;3.17;;;;;;;32.02;44.99;100501.34;5050518;28;20556;-83
2023/07/05 12:00:31;;;;;;;5.10;2.80;;;;;;;32.08;43.01;100485.59;5055234;28;20041;-89
2023/07/05 12:03:15;;;;;;;6.75;2.78;;;;;;;32.31;40.86;100488.75;5052353;28;20500;-91
2023/07/05 12:05:43;;;;;;;3.42;2.35;;;;;;;32.37;38.79;100478.47;5052709;28;20036;-90
2023/07/05 12:08:17;;;;;;;8.48;2.40;;;;;;;32.38;38.87;100476.53;5081156;28;20083;-90
2023/07/05 12:10:51;;;;;;;9.82;2.83;;;;;;;32.56;36.80;100470.50;5094137;28;20036;-88
2023/07/05 12:13:20;;;;;;;9.20;2.65;;;;;;;32.60;36.10;100477.22;5099895;28;20058;-96
2023/07/05 12:15:46;;;;;;;8.45;2.85;;;;;;;32.62;34.00;100461.91;5096608;28;20790;-89
2023/07/05 12:18:14;;;;;;;5.70;2.50;;;;;;;32.71;34.13;100457.47;5099280;28;20111;-87
2023/07/05 12:20:47;;;;;;;9.75;3.50;;;;;;;32.80;32.70;100443.84;5096927;28;20034;-88
2023/07/05 12:23:16;;;;;;;15.15;2.58;;;;;;;32.78;32.30;100440.50;5096635;28;20032;-86
2023/07/05 12:25:55;;;;;;;9.70;2.63;;;;;;;32.86;32.73;100453.88;5097377;28;20028;-88
2023/07/05 12:28:29;;;;;;;11.10;2.60;;;;;;;32.87;32.93;100433.28;5096330;28;20055;-87
2023/07/05 12:30:56;;;;;;;8.27;3.10;;;;;;;32.87;32.22;100438.84;5092597;28;20042;-91
2023/07/05 12:33:25;;;;;;;12.85;3.22;;;;;;;32.76;32.79;100442.69;5093077;28;20087;-87
2023/07/05 12:36:07;;;;;;;6.07;2.75;;;;;;;32.86;32.78;100448.31;5093226;28;20039;-85
2023/07/05 12:38:33;;;;;;;11.00;3.78;;;;;;;32.82;33.28;100453.59;5091731;28;20039;-89
2023/07/05 12:41:00;;;;;;;7.03;2.83;;;;;;;33.02;33.25;100444.44;5092401;28;20445;-87
2023/07/05 12:43:29;;;;;;;12.95;2.80;;;;;;;32.96;32.48;100428.81;5091971;28;20028;-86
2023/07/05 12:46:28;;;;;;;5.38;2.65;;;;;;;32.98;32.62;100429.38;5093377;28;20483;-88
2023/07/05 12:48:55;;;;;;;5.18;2.67;;;;;;;33.02;33.89;100424.94;5029933;28;20044;-86